Avoch, United Kingdom
Current Conditions -  °F | °C
As of 8:50 PM on Friday 19 Dec 2014 (Local Time) from EGPE Reporting Station
Rain Showers Rain Showers  
Wind Chill: -3°   Ceiling: 3500
Heat Index:   Visibility: 6mi
Dew Point:   Wind: 18mph
Humidity: 93%   Direction: 250°WSW
Pressure: 29.59"   Gusts: NA
Location:  57.57°N, 4.17°W
Report Text: EGPE 192050Z 25016KT 9999 VCSH FEW005 SCT015CB BKN035 03/02 Q1002
Loading
Personal Weather Stations






























Interactive Weather Map New forecast layout! Learn more

10-Day Weather Forecast

Advertisements
Track Severe Weather on mobile